createdAt,value
2022-12-02T00:01:45.827Z,4.03
2022-12-02T00:04:30.922Z,3.98
2022-12-02T00:07:20.173Z,3.97
2022-12-02T00:10:28.856Z,4.00
2022-12-02T00:13:42.104Z,3.93
2022-12-02T00:16:27.544Z,3.88
2022-12-02T00:19:12.389Z,3.84
2022-12-02T00:21:57.522Z,3.81
2022-12-02T00:24:42.586Z,3.87
2022-12-02T00:27:27.822Z,3.90
2022-12-02T00:30:12.895Z,4.11
2022-12-02T00:32:57.891Z,3.93
2022-12-02T00:35:42.994Z,3.92
2022-12-02T00:38:28.245Z,3.97
2022-12-02T00:41:13.038Z,3.79
2022-12-02T00:44:16.808Z,3.82
2022-12-02T00:47:01.913Z,3.82
2022-12-02T00:49:46.947Z,3.79
2022-12-02T00:52:32.130Z,3.75
2022-12-02T00:55:17.706Z,3.81
2022-12-02T00:58:02.610Z,3.74
2022-12-02T01:00:47.929Z,3.73
2022-12-02T01:03:33.031Z,3.63
2022-12-02T01:06:18.015Z,3.68
2022-12-02T01:09:03.187Z,3.65
2022-12-02T01:11:48.337Z,3.75
2022-12-02T01:14:33.709Z,3.62
2022-12-02T01:17:18.873Z,3.54
2022-12-02T01:20:04.301Z,3.45
2022-12-02T01:22:49.167Z,3.47
2022-12-02T01:25:34.434Z,3.53
2022-12-02T01:28:19.371Z,3.64
2022-12-02T01:31:04.557Z,3.53
2022-12-02T01:33:49.595Z,3.77
2022-12-02T01:36:34.614Z,3.54
2022-12-02T01:39:19.435Z,3.41
2022-12-02T01:42:05.195Z,3.41
2022-12-02T01:44:50.558Z,3.38
2022-12-02T01:47:36.952Z,3.33
2022-12-02T01:50:22.277Z,3.31
2022-12-02T01:53:07.282Z,3.25
2022-12-02T01:55:52.303Z,3.52
2022-12-02T01:58:37.493Z,3.50
2022-12-02T02:01:24.992Z,3.47
2022-12-02T02:04:11.855Z,3.35
2022-12-02T02:06:56.870Z,3.28
2022-12-02T02:09:41.918Z,3.13
2022-12-02T02:12:27.197Z,3.15
2022-12-02T02:15:14.029Z,3.10
2022-12-02T02:18:04.652Z,3.13
2022-12-02T02:20:50.924Z,3.47
2022-12-02T02:23:36.685Z,3.50
2022-12-02T02:26:22.387Z,3.44
2022-12-02T02:29:07.653Z,3.40
2022-12-02T02:31:52.738Z,3.57
2022-12-02T02:34:37.966Z,3.47
2022-12-02T02:37:24.507Z,3.55
2022-12-02T02:40:11.745Z,3.65
2022-12-02T02:43:01.000Z,3.28
2022-12-02T02:45:46.753Z,3.49
2022-12-02T02:48:31.960Z,3.48
2022-12-02T02:51:17.543Z,3.58
2022-12-02T02:54:02.494Z,3.56
2022-12-02T02:56:48.075Z,3.48
2022-12-02T02:59:33.238Z,3.26
2022-12-02T03:02:18.157Z,3.50
2022-12-02T03:05:05.118Z,3.49
2022-12-02T03:07:51.218Z,3.33
2022-12-02T03:10:36.515Z,3.40
2022-12-02T03:13:21.843Z,3.54
2022-12-02T03:16:10.196Z,3.67
2022-12-02T03:18:56.854Z,3.65
2022-12-02T03:21:42.320Z,3.40
2022-12-02T03:24:28.297Z,3.33
2022-12-02T03:27:14.061Z,3.39
2022-12-02T03:29:59.383Z,3.35
2022-12-02T03:32:44.375Z,3.52
2022-12-02T03:35:29.384Z,3.61
2022-12-02T03:38:14.786Z,3.71
2022-12-02T03:41:02.302Z,3.62
2022-12-02T03:43:47.360Z,3.76
2022-12-02T03:46:32.920Z,3.71
2022-12-02T03:49:19.161Z,3.48
2022-12-02T03:52:04.678Z,3.26
2022-12-02T03:54:54.875Z,3.28
2022-12-02T03:57:42.064Z,3.29
2022-12-02T04:00:26.835Z,3.35
2022-12-02T04:03:11.731Z,3.21
2022-12-02T04:05:56.817Z,3.45
2022-12-02T04:08:41.891Z,3.47
2022-12-02T04:11:26.911Z,3.51
2022-12-02T04:14:11.629Z,3.31
2022-12-02T04:16:56.783Z,3.25
2022-12-02T04:19:41.833Z,3.23
2022-12-02T04:22:27.001Z,3.18
2022-12-02T04:25:12.252Z,3.29
2022-12-02T04:27:57.262Z,3.24
2022-12-02T04:30:42.396Z,3.25
2022-12-02T04:33:27.343Z,3.53
2022-12-02T04:36:12.131Z,3.60
2022-12-02T04:38:57.275Z,3.68
2022-12-02T04:41:42.311Z,3.64
2022-12-02T04:44:27.617Z,3.76
2022-12-02T04:47:12.383Z,3.63
2022-12-02T04:49:57.710Z,3.64
2022-12-02T04:52:42.502Z,3.56
2022-12-02T04:55:27.756Z,3.68
2022-12-02T04:58:13.362Z,3.77
2022-12-02T05:00:58.417Z,3.46
2022-12-02T05:03:43.620Z,3.64
2022-12-02T05:06:28.703Z,3.64
2022-12-02T05:09:13.654Z,3.61
2022-12-02T05:11:58.680Z,3.63
2022-12-02T05:14:43.894Z,3.79
2022-12-02T05:17:30.737Z,3.63
2022-12-02T05:20:15.876Z,3.59
2022-12-02T05:23:01.020Z,3.61
2022-12-02T05:25:45.968Z,3.78
2022-12-02T05:28:31.061Z,3.72
2022-12-02T05:31:15.837Z,3.66
2022-12-02T05:34:00.994Z,3.63
2022-12-02T05:36:46.229Z,3.70
2022-12-02T05:39:31.023Z,3.37
2022-12-02T05:42:16.249Z,3.38
2022-12-02T05:45:06.796Z,3.17
2022-12-02T05:47:54.569Z,3.19
2022-12-02T05:50:41.091Z,3.26
2022-12-02T05:53:27.912Z,3.61
2022-12-02T05:56:27.966Z,3.83
2022-12-02T05:59:19.148Z,3.50
2022-12-02T06:02:21.108Z,3.28
2022-12-02T06:05:25.580Z,3.26
2022-12-02T06:08:22.298Z,3.18
2022-12-02T06:11:34.386Z,3.24
2022-12-02T06:14:24.947Z,3.31
2022-12-02T06:17:18.091Z,3.54
2022-12-02T06:20:05.348Z,3.59
2022-12-02T06:22:50.438Z,3.68
2022-12-02T06:25:36.536Z,3.33
2022-12-02T06:28:38.992Z,3.12
2022-12-02T06:31:31.109Z,3.31
2022-12-02T06:34:38.422Z,3.26
2022-12-02T06:37:28.661Z,3.42
2022-12-02T06:40:40.063Z,3.27
2022-12-02T06:43:29.550Z,3.15
2022-12-02T06:46:20.232Z,3.11
2022-12-02T06:49:21.113Z,3.43
2022-12-02T06:52:21.133Z,3.10
2022-12-02T06:55:30.826Z,3.06
2022-12-02T06:58:34.117Z,3.12
2022-12-02T07:01:27.876Z,3.26
2022-12-02T07:04:35.509Z,3.16
2022-12-02T07:07:21.548Z,3.12
2022-12-02T07:10:21.411Z,3.50
2022-12-02T07:13:13.756Z,3.61
2022-12-02T07:15:59.164Z,3.48
2022-12-02T07:18:44.668Z,3.23
2022-12-02T07:21:30.233Z,3.52
2022-12-02T07:24:18.659Z,3.47
2022-12-02T07:27:30.901Z,3.45
2022-12-02T07:30:34.687Z,3.51
2022-12-02T07:33:19.658Z,3.52
2022-12-02T07:36:05.171Z,3.51
2022-12-02T07:39:06.820Z,3.46
2022-12-02T07:41:52.241Z,3.54
2022-12-02T07:44:38.047Z,3.53
2022-12-02T07:47:23.213Z,3.65
2022-12-02T07:50:09.809Z,3.59
2022-12-02T07:52:54.915Z,3.40
2022-12-02T07:55:40.139Z,3.26
2022-12-02T07:58:42.054Z,2.85
2022-12-02T08:01:30.276Z,3.11
2022-12-02T08:04:15.469Z,3.06
2022-12-02T08:07:00.262Z,3.14
2022-12-02T08:09:45.390Z,3.04
2022-12-02T08:12:30.564Z,3.14
2022-12-02T08:15:15.920Z,3.17
2022-12-02T08:18:01.250Z,3.21
2022-12-02T08:20:46.387Z,2.92
2022-12-02T08:23:31.427Z,2.74
2022-12-02T08:26:16.255Z,3.03
2022-12-02T08:29:01.552Z,2.75
2022-12-02T08:31:46.670Z,3.17
2022-12-02T08:34:31.996Z,3.23
2022-12-02T08:37:17.173Z,3.27
2022-12-02T08:40:02.382Z,3.20
2022-12-02T08:42:47.597Z,3.21
2022-12-02T08:45:32.652Z,3.19
2022-12-02T08:48:17.487Z,3.40
2022-12-02T08:51:03.495Z,3.42
2022-12-02T08:53:48.598Z,3.40
2022-12-02T08:56:33.468Z,3.55
2022-12-02T08:59:18.854Z,3.53
2022-12-02T09:02:04.105Z,3.35
2022-12-02T09:04:49.257Z,3.32
2022-12-02T09:07:34.330Z,3.13
2022-12-02T09:10:19.181Z,3.35
2022-12-02T09:13:04.186Z,3.34
2022-12-02T09:15:49.417Z,3.22
2022-12-02T09:18:34.666Z,3.28
2022-12-02T09:21:19.588Z,3.39
2022-12-02T09:24:04.836Z,3.35
2022-12-02T09:26:49.845Z,3.23
2022-12-02T09:29:35.014Z,3.27
2022-12-02T09:32:19.871Z,3.36
2022-12-02T09:35:05.621Z,2.95
2022-12-02T09:37:50.642Z,3.19
2022-12-02T09:40:36.081Z,3.10
2022-12-02T09:43:21.236Z,3.39
2022-12-02T09:46:06.426Z,3.36
2022-12-02T09:48:51.754Z,3.43
2022-12-02T09:51:36.736Z,3.52
2022-12-02T09:54:21.979Z,3.59
2022-12-02T09:57:15.410Z,3.33
2022-12-02T10:00:05.951Z,3.42
2022-12-02T10:02:53.491Z,3.49
2022-12-02T10:05:38.747Z,3.58
2022-12-02T10:08:27.158Z,3.71
2022-12-02T10:11:27.287Z,3.72
2022-12-02T10:14:14.022Z,3.62
2022-12-02T10:16:59.520Z,3.73
2022-12-02T10:19:49.542Z,3.72
2022-12-02T10:23:06.473Z,3.80
2022-12-02T10:26:06.769Z,3.67
2022-12-02T10:29:06.314Z,3.88
2022-12-02T10:32:21.846Z,3.84
2022-12-02T10:35:10.221Z,3.88
2022-12-02T10:37:55.430Z,3.77
2022-12-02T10:40:40.226Z,3.90
2022-12-02T10:43:25.279Z,3.96
2022-12-02T10:46:16.961Z,3.84
2022-12-02T10:49:15.523Z,4.00
2022-12-02T10:52:07.470Z,3.79
2022-12-02T10:54:54.545Z,3.85
2022-12-02T10:57:42.147Z,3.74
2022-12-02T11:00:27.108Z,3.93
2022-12-02T11:03:12.134Z,3.99
2022-12-02T11:05:59.159Z,4.05
2022-12-02T11:08:45.559Z,4.09
2022-12-02T11:11:30.445Z,4.05
2022-12-02T11:14:40.005Z,4.16
2022-12-02T11:17:51.445Z,3.76
2022-12-02T11:20:44.050Z,3.78
2022-12-02T11:23:30.193Z,3.69
2022-12-02T11:26:15.711Z,3.65
2022-12-02T11:29:14.796Z,3.67
2022-12-02T11:32:18.845Z,3.72
2022-12-02T11:35:21.365Z,3.82
2022-12-02T11:38:20.618Z,3.78
2022-12-02T11:41:05.560Z,3.75
2022-12-02T11:43:59.631Z,3.70
2022-12-02T11:46:49.966Z,3.68
2022-12-02T11:49:37.997Z,3.68
2022-12-02T11:52:25.196Z,3.69
2022-12-02T11:55:23.467Z,3.89
2022-12-02T11:58:37.755Z,3.65
2022-12-02T12:01:23.401Z,3.61
2022-12-02T12:04:23.018Z,3.68
2022-12-02T12:07:08.309Z,3.69
2022-12-02T12:09:58.435Z,3.69
2022-12-02T12:13:16.040Z,3.69
2022-12-02T12:16:02.589Z,3.67
2022-12-02T12:18:48.683Z,3.75
2022-12-02T12:21:33.746Z,3.78
2022-12-02T12:24:19.785Z,3.78
2022-12-02T12:27:05.031Z,3.92
2022-12-02T12:29:49.977Z,3.86
2022-12-02T12:32:35.198Z,3.85
2022-12-02T12:35:20.404Z,3.89
2022-12-02T12:38:05.361Z,3.88
2022-12-02T12:40:50.654Z,3.83
2022-12-02T12:43:35.682Z,3.76
2022-12-02T12:46:20.457Z,3.76
2022-12-02T12:49:05.930Z,3.76
2022-12-02T12:51:50.768Z,3.72
2022-12-02T12:54:35.997Z,3.82
2022-12-02T12:57:21.102Z,3.80
2022-12-02T13:00:06.734Z,3.75
2022-12-02T13:02:51.640Z,3.80
2022-12-02T13:05:36.641Z,4.14
2022-12-02T13:08:21.607Z,3.84
2022-12-02T13:11:06.353Z,3.76
2022-12-02T13:13:51.466Z,3.83
2022-12-02T13:16:36.774Z,3.82
2022-12-02T13:19:22.144Z,3.80
2022-12-02T13:22:07.161Z,3.81
2022-12-02T13:24:52.226Z,3.78
2022-12-02T13:27:37.718Z,3.73
2022-12-02T13:30:23.898Z,3.73
2022-12-02T13:33:09.290Z,3.76
2022-12-02T13:35:54.067Z,3.72
2022-12-02T13:38:39.283Z,3.74
2022-12-02T13:41:24.593Z,3.76
2022-12-02T13:44:09.441Z,3.61
2022-12-02T13:46:54.588Z,3.57
2022-12-02T13:49:39.632Z,3.66
2022-12-02T13:52:25.337Z,3.66
2022-12-02T13:55:10.137Z,3.74
2022-12-02T13:57:55.289Z,3.66
2022-12-02T14:00:40.760Z,3.57
2022-12-02T14:03:26.023Z,3.63
2022-12-02T14:06:11.148Z,3.48
2022-12-02T14:08:56.183Z,3.39
2022-12-02T14:11:41.294Z,3.49
2022-12-02T14:14:26.502Z,3.59
2022-12-02T14:17:11.555Z,3.64
2022-12-02T14:19:56.650Z,3.59
2022-12-02T14:22:41.765Z,3.55
2022-12-02T14:25:26.932Z,3.57
2022-12-02T14:28:11.829Z,3.50
2022-12-02T14:30:57.092Z,3.69
2022-12-02T14:34:10.221Z,3.65
2022-12-02T14:36:46.694Z,3.60
2022-12-02T14:39:32.133Z,3.55
2022-12-02T14:42:17.295Z,3.69
2022-12-02T14:45:02.456Z,3.56
2022-12-02T14:47:47.586Z,3.54
2022-12-02T14:50:32.891Z,3.54
2022-12-02T14:53:17.690Z,3.54
2022-12-02T14:56:02.849Z,3.57
2022-12-02T14:58:48.717Z,3.57
2022-12-02T15:01:33.422Z,3.55
2022-12-02T15:04:18.448Z,3.57
2022-12-02T15:07:03.838Z,3.63
2022-12-02T15:09:48.870Z,3.63
2022-12-02T15:12:34.212Z,3.63
2022-12-02T15:18:24.018Z,3.68
2022-12-02T15:21:13.366Z,3.61
2022-12-02T15:23:58.759Z,3.57
2022-12-02T15:26:43.960Z,3.61
2022-12-02T15:29:29.398Z,3.60
2022-12-02T15:32:19.112Z,3.57
2022-12-02T15:35:04.923Z,3.63
2022-12-02T15:37:49.836Z,3.53
2022-12-02T15:40:34.909Z,3.55
2022-12-02T15:43:19.938Z,3.54
2022-12-02T15:46:05.009Z,3.52
2022-12-02T15:48:50.326Z,3.50
2022-12-02T15:51:35.252Z,3.35
2022-12-02T15:54:20.276Z,3.40
2022-12-02T15:57:05.570Z,3.36
2022-12-02T15:59:50.669Z,3.32
2022-12-02T16:02:36.096Z,3.28
2022-12-02T16:05:21.042Z,3.32
2022-12-02T16:08:06.284Z,3.32
2022-12-02T16:10:51.293Z,3.27
2022-12-02T16:13:36.449Z,3.26
2022-12-02T16:16:21.464Z,3.25
2022-12-02T16:19:06.438Z,3.26
2022-12-02T16:21:51.535Z,3.31
2022-12-02T16:24:36.668Z,3.33
2022-12-02T16:27:21.769Z,3.37
2022-12-02T16:30:07.706Z,3.34
2022-12-02T16:32:52.642Z,3.41
2022-12-02T16:35:37.907Z,3.36
2022-12-02T16:38:22.715Z,3.35
2022-12-02T16:41:07.923Z,3.34
2022-12-02T16:43:52.978Z,3.38
2022-12-02T16:46:38.177Z,3.40
2022-12-02T16:49:23.278Z,3.37
2022-12-02T16:52:08.175Z,3.37
2022-12-02T16:54:53.852Z,3.33
2022-12-02T16:57:38.905Z,3.26
2022-12-02T17:00:24.092Z,3.28
2022-12-02T17:03:09.019Z,3.33
2022-12-02T17:05:54.038Z,3.27
2022-12-02T17:08:39.097Z,3.25
2022-12-02T17:11:24.202Z,3.22
2022-12-02T17:14:09.290Z,3.17
2022-12-02T17:16:54.210Z,3.11
2022-12-02T17:19:39.269Z,3.10
2022-12-02T17:22:24.348Z,3.09
2022-12-02T17:25:10.147Z,3.05
2022-12-02T17:27:55.199Z,3.04
2022-12-02T17:30:40.209Z,2.98
2022-12-02T17:33:25.343Z,2.95
2022-12-02T17:36:10.678Z,2.89
2022-12-02T17:38:57.652Z,2.90
2022-12-02T17:41:42.986Z,2.90
2022-12-02T17:44:30.358Z,2.87
2022-12-02T17:47:15.506Z,2.85
2022-12-02T17:50:00.554Z,2.95
2022-12-02T17:52:45.682Z,2.87
2022-12-02T17:55:30.693Z,2.92
2022-12-02T17:58:16.212Z,2.88
2022-12-02T18:01:06.150Z,2.80
2022-12-02T18:03:56.115Z,2.84
2022-12-02T18:06:41.206Z,2.82
2022-12-02T18:09:26.524Z,2.86
2022-12-02T18:12:11.307Z,2.77
2022-12-02T18:14:56.423Z,2.77
2022-12-02T18:17:42.541Z,2.80
2022-12-02T18:20:27.607Z,2.72
2022-12-02T18:23:12.740Z,2.73
2022-12-02T18:25:57.654Z,2.67
2022-12-02T18:28:42.441Z,2.66
2022-12-02T18:31:27.634Z,2.70
2022-12-02T18:34:12.486Z,2.75
2022-12-02T18:36:57.546Z,2.67
2022-12-02T18:39:42.620Z,2.69
2022-12-02T18:42:27.731Z,2.71
2022-12-02T18:45:13.228Z,2.67
2022-12-02T18:47:58.243Z,2.72
2022-12-02T18:50:43.323Z,2.71
2022-12-02T18:53:28.556Z,2.66
2022-12-02T18:56:13.387Z,2.65
2022-12-02T18:58:58.509Z,2.67
2022-12-02T19:01:43.760Z,2.64
2022-12-02T19:04:28.809Z,2.70
2022-12-02T19:07:13.608Z,2.72
2022-12-02T19:09:58.573Z,2.71
2022-12-02T19:12:43.829Z,2.71
2022-12-02T19:15:28.944Z,2.61
2022-12-02T19:18:14.229Z,2.66
2022-12-02T19:21:01.699Z,2.72
2022-12-02T19:23:46.487Z,2.64
2022-12-02T19:26:31.654Z,2.59
2022-12-02T19:29:16.317Z,2.52
2022-12-02T19:32:02.735Z,2.58
2022-12-02T19:34:47.667Z,2.60
2022-12-02T19:37:32.667Z,2.62
2022-12-02T19:40:17.666Z,2.60
2022-12-02T19:43:02.649Z,2.58
2022-12-02T19:45:47.965Z,2.53
2022-12-02T19:48:33.016Z,2.52
2022-12-02T19:51:17.839Z,2.60
2022-12-02T19:54:03.148Z,2.55
2022-12-02T19:56:47.913Z,2.49
2022-12-02T19:59:33.115Z,2.48
2022-12-02T20:02:17.949Z,2.42
2022-12-02T20:05:03.018Z,2.40
2022-12-02T20:07:48.868Z,2.44
2022-12-02T20:10:33.672Z,2.44
2022-12-02T20:13:18.656Z,2.40
2022-12-02T20:16:04.010Z,2.46
2022-12-02T20:18:48.944Z,2.45
2022-12-02T20:21:34.051Z,2.41
2022-12-02T20:24:18.931Z,2.49
2022-12-02T20:27:04.218Z,2.47
2022-12-02T20:29:49.603Z,2.49
2022-12-02T20:32:34.514Z,2.36
2022-12-02T20:35:19.391Z,2.27
2022-12-02T20:38:04.689Z,2.31
2022-12-02T20:40:49.627Z,2.29
2022-12-02T20:43:34.551Z,2.27
2022-12-02T20:46:19.261Z,2.27
2022-12-02T20:49:04.455Z,2.30
2022-12-02T20:51:49.491Z,2.23
2022-12-02T20:54:34.639Z,2.18
2022-12-02T20:57:19.709Z,2.21
2022-12-02T21:00:05.516Z,2.17
2022-12-02T21:02:50.703Z,2.10
2022-12-02T21:05:36.271Z,2.13
2022-12-02T21:08:21.230Z,2.07
2022-12-02T21:11:06.404Z,2.07
2022-12-02T21:13:51.570Z,2.00
2022-12-02T21:16:37.223Z,1.98
2022-12-02T21:19:22.028Z,1.97
2022-12-02T21:22:07.033Z,1.96
2022-12-02T21:24:53.184Z,1.94
2022-12-02T21:27:38.578Z,1.95
2022-12-02T21:30:23.912Z,1.92
2022-12-02T21:33:08.787Z,1.99
2022-12-02T21:35:54.177Z,1.97
2022-12-02T21:38:39.055Z,2.10
2022-12-02T21:41:24.093Z,2.10
2022-12-02T21:44:08.900Z,1.97
2022-12-02T21:46:54.119Z,1.91
2022-12-02T21:49:40.666Z,2.02
2022-12-02T21:52:27.318Z,1.99
2022-12-02T21:55:12.136Z,1.99
2022-12-02T21:57:57.214Z,1.90
2022-12-02T22:00:42.280Z,1.87
2022-12-02T22:03:27.367Z,1.83
2022-12-02T22:06:12.245Z,1.88
2022-12-02T22:08:57.451Z,1.91
2022-12-02T22:11:42.619Z,1.87
2022-12-02T22:14:28.803Z,1.84
2022-12-02T22:17:13.656Z,1.79
2022-12-02T22:19:59.314Z,1.83
2022-12-02T22:22:44.373Z,1.82
2022-12-02T22:25:29.319Z,1.80
2022-12-02T22:28:14.311Z,1.94
2022-12-02T22:31:00.494Z,1.99
2022-12-02T22:33:45.529Z,1.91
2022-12-02T22:36:30.813Z,1.82
2022-12-02T22:39:15.696Z,1.83
2022-12-02T22:42:00.834Z,1.73
2022-12-02T22:44:45.889Z,1.62
2022-12-02T22:47:31.018Z,1.73
2022-12-02T22:50:15.943Z,1.75
2022-12-02T22:53:01.101Z,1.79
2022-12-02T22:55:46.190Z,1.76
2022-12-02T22:58:31.273Z,1.86
2022-12-02T23:01:16.353Z,1.98
2022-12-02T23:04:01.297Z,1.87
2022-12-02T23:06:46.488Z,1.77
2022-12-02T23:09:31.435Z,1.91
2022-12-02T23:12:16.569Z,1.92
2022-12-02T23:15:28.356Z,1.80
2022-12-02T23:18:07.035Z,1.83
2022-12-02T23:20:51.973Z,2.06
2022-12-02T23:23:36.981Z,1.93
2022-12-02T23:26:21.786Z,1.90
2022-12-02T23:29:07.003Z,1.98
2022-12-02T23:31:52.150Z,1.84
2022-12-02T23:34:37.391Z,1.74
2022-12-02T23:37:22.274Z,1.74
2022-12-02T23:40:07.959Z,1.75
2022-12-02T23:42:53.017Z,1.87
2022-12-02T23:45:38.088Z,1.85
2022-12-02T23:48:22.859Z,1.83
2022-12-02T23:51:07.992Z,1.79
2022-12-02T23:53:53.268Z,1.79
2022-12-02T23:56:38.301Z,1.76
2022-12-02T23:59:23.341Z,1.78
